»·PEaware :: N251CV KOTH-KSEA

N251CV :: KOTH-KSEA

FLIGHT INFORMATION

Flight Status: Arrived
Operator: Privately registered:
United States
More flights under this callsign
Pilot: Simon H. (14656)
Aircraft: Unknown
(SF50)
More flights by this aircraft type
Origin: KOTH North Bend Mun
United States
Destination: KSEA Seattle-Tacoma Intl
United States
More flights between these airports :: More routes between these airports
Route: +OTH6 RARES UBG OLM2
File this flight plan on PilotEdge
Remarks:
Altitude:
(Current/Filed)
23,000ft
Speed:
(Current/Filed)
300kts
Departed: 01-Jun-18 05:43 PM
Arrived: 01-Jun-18 07:07 PM
Distance/Time
Traveled:
255nm/1:24
Distance/Time
To Go:
Arrived

Flight Plot

Page will automatically refresh every two minutes.

Flight plan parsing failed; only flown route is shown


Map Options




Map Legend


Flown Route
Filed Route
Departure Airport
Arrival Airport
Navaid (VOR, NDB)
Fix

Horizontal Profiles

Position Reports

Time Latitude Longitude Heading Altitude Ground
Speed
01-Jun-18 17:07 43.408948 -124.239516 359 21ft 0kts
01-Jun-18 17:08 43.408948 -124.239516 359 21ft 0kts
01-Jun-18 17:09 43.408948 -124.239516 359 21ft 0kts
01-Jun-18 17:10 43.408948 -124.239516 359 21ft 0kts
01-Jun-18 17:11 43.408948 -124.239516 359 21ft 0kts
01-Jun-18 17:12 43.408948 -124.239516 359 21ft 0kts
01-Jun-18 17:13 43.408948 -124.239516 359 21ft 0kts
01-Jun-18 17:14 43.408948 -124.239516 359 21ft 0kts
01-Jun-18 17:15 43.408948 -124.239516 359 21ft 0kts
01-Jun-18 17:16 43.408948 -124.239516 359 21ft 0kts
01-Jun-18 17:17 43.408948 -124.239516 359 21ft 0kts
01-Jun-18 17:18 43.408948 -124.239516 359 21ft 0kts
01-Jun-18 17:19 43.408948 -124.239516 359 21ft 0kts
01-Jun-18 17:20 43.408948 -124.239516 359 21ft 0kts
01-Jun-18 17:21 43.408948 -124.239516 359 21ft 0kts
01-Jun-18 17:22 43.408948 -124.239516 359 21ft 0kts
01-Jun-18 17:23 43.408948 -124.239516 359 21ft 0kts
01-Jun-18 17:24 43.408948 -124.239516 359 21ft 0kts
01-Jun-18 17:25 43.408948 -124.239516 359 21ft 0kts
01-Jun-18 17:26 43.408948 -124.239516 359 21ft 0kts
01-Jun-18 17:27 43.408948 -124.239516 359 21ft 0kts
01-Jun-18 17:28 43.408948 -124.239516 359 21ft 0kts
01-Jun-18 17:29 43.408948 -124.239516 359 21ft 0kts
01-Jun-18 17:30 43.408948 -124.239516 359 21ft 0kts
01-Jun-18 17:31 43.408948 -124.239516 359 21ft 0kts
01-Jun-18 17:32 43.408948 -124.239516 359 21ft 0kts
01-Jun-18 17:33 43.408948 -124.239516 359 21ft 0kts
01-Jun-18 17:34 43.408948 -124.239516 359 21ft 0kts
01-Jun-18 17:35 43.408948 -124.239516 359 21ft 0kts
01-Jun-18 17:36 43.408948 -124.239516 359 21ft 0kts
01-Jun-18 17:37 43.408948 -124.239516 359 21ft 0kts
01-Jun-18 17:38 43.408948 -124.239516 359 21ft 0kts
01-Jun-18 17:39 43.408948 -124.239516 359 21ft 0kts
01-Jun-18 17:40 43.408948 -124.239516 359 21ft 0kts
01-Jun-18 17:41 43.408953 -124.238715 93 21ft 0kts
01-Jun-18 17:42 43.408953 -124.238715 93 21ft 0kts
01-Jun-18 17:43 43.416793 -124.243790 328 67ft 105kts
01-Jun-18 17:44 43.430186 -124.287022 231 1322ft 174kts
01-Jun-18 17:45 43.415879 -124.343360 312 2290ft 167kts
01-Jun-18 17:46 43.442186 -124.317641 110 3168ft 183kts
01-Jun-18 17:47 43.417700 -124.250403 107 4395ft 213kts
01-Jun-18 17:48 43.420790 -124.172298 39 5780ft 213kts
01-Jun-18 17:49 43.472047 -124.135190 19 7245ft 210kts
01-Jun-18 17:50 43.515992 -124.109007 18 8472ft 211kts
01-Jun-18 17:51 43.571582 -124.075952 18 9974ft 222kts
01-Jun-18 17:52 43.614141 -124.050567 18 11083ft 225kts
01-Jun-18 17:53 43.671025 -124.016537 17 12551ft 225kts
01-Jun-18 17:54 43.727494 -123.982746 16 14011ft 223kts
01-Jun-18 17:55 43.783847 -123.948929 15 15482ft 219kts
01-Jun-18 17:56 43.839813 -123.915274 15 16962ft 224kts
01-Jun-18 17:57 43.895587 -123.881737 15 18421ft 231kts
01-Jun-18 17:58 43.957077 -123.844545 15 19950ft 252kts
01-Jun-18 17:59 44.022719 -123.804782 14 21463ft 262kts
01-Jun-18 18:00 44.089751 -123.764113 14 22962ft 265kts
01-Jun-18 18:01 44.156519 -123.723721 14 23305ft 284kts
01-Jun-18 18:02 44.230013 -123.678932 14 23290ft 296kts
01-Jun-18 18:03 44.304974 -123.633076 14 23277ft 293kts
01-Jun-18 18:04 44.379517 -123.587379 14 23266ft 294kts
01-Jun-18 18:05 44.454390 -123.541350 14 23266ft 294kts
01-Jun-18 18:06 44.528939 -123.495386 14 23267ft 294kts
01-Jun-18 18:07 44.603303 -123.449411 14 23267ft 294kts
01-Jun-18 18:08 44.678012 -123.403092 14 23267ft 294kts
01-Jun-18 18:09 44.752822 -123.356592 14 23267ft 294kts
01-Jun-18 18:10 44.797740 -123.328649 15 23257ft 294kts
01-Jun-18 18:11 44.870410 -123.283228 14 23257ft 293kts
01-Jun-18 18:12 44.944349 -123.236999 14 23254ft 293kts
01-Jun-18 18:13 45.018598 -123.190301 14 23254ft 294kts
01-Jun-18 18:14 45.093277 -123.143250 14 23259ft 296kts
01-Jun-18 18:15 45.156682 -123.103206 13 23263ft 299kts
01-Jun-18 18:16 45.232322 -123.055248 14 23276ft 300kts
01-Jun-18 18:17 45.308262 -123.006784 14 23276ft 301kts
01-Jun-18 18:18 45.385643 -122.977068 351 23292ft 280kts
01-Jun-18 18:19 45.463670 -122.973171 351 23278ft 279kts
01-Jun-18 18:20 45.540387 -122.969643 351 23283ft 279kts
01-Jun-18 18:21 45.617385 -122.966090 351 23283ft 280kts
01-Jun-18 18:22 45.682301 -122.963085 351 23283ft 280kts
01-Jun-18 18:23 45.713020 -122.961661 351 23283ft 280kts
01-Jun-18 18:24 45.788841 -122.958140 351 23284ft 280kts
01-Jun-18 18:25 45.866415 -122.954526 351 23287ft 279kts
01-Jun-18 18:26 45.943784 -122.950913 351 23290ft 279kts
01-Jun-18 18:27 46.020439 -122.947322 351 23296ft 279kts
01-Jun-18 18:28 46.097208 -122.943717 351 23302ft 279kts
01-Jun-18 18:29 46.161056 -122.940711 351 23302ft 279kts
01-Jun-18 18:30 46.224811 -122.937701 351 23302ft 279kts
01-Jun-18 18:31 46.301506 -122.934073 351 23301ft 279kts
01-Jun-18 18:32 46.378450 -122.930421 351 23300ft 279kts
01-Jun-18 18:33 46.451500 -122.926946 351 23298ft 279kts
01-Jun-18 18:34 46.525955 -122.923320 351 22416ft 266kts
01-Jun-18 18:35 46.598466 -122.919868 351 20921ft 260kts
01-Jun-18 18:36 46.669643 -122.916465 352 19432ft 256kts
01-Jun-18 18:37 46.740113 -122.913182 353 17941ft 255kts
01-Jun-18 18:38 46.809448 -122.909694 353 16986ft 234kts
01-Jun-18 18:39 46.868019 -122.906767 352 16985ft 203kts
01-Jun-18 18:40 46.926607 -122.904089 352 16997ft 227kts
01-Jun-18 18:41 46.988578 -122.879054 33 16990ft 265kts
01-Jun-18 18:42 47.046260 -122.806969 36 15912ft 277kts
01-Jun-18 18:43 47.102621 -122.734968 37 14459ft 272kts
01-Jun-18 18:44 47.154155 -122.668985 37 13099ft 266kts
01-Jun-18 18:45 47.206147 -122.602214 37 12999ft 248kts
01-Jun-18 18:46 47.270257 -122.590218 354 12215ft 251kts
01-Jun-18 18:47 47.338561 -122.590870 354 10730ft 246kts
01-Jun-18 18:48 47.404707 -122.592202 355 9277ft 244kts
01-Jun-18 18:49 47.470231 -122.594106 355 7831ft 243kts
01-Jun-18 18:50 47.534087 -122.596409 354 6419ft 240kts
01-Jun-18 18:51 47.595699 -122.598153 355 5976ft 204kts
01-Jun-18 18:52 47.651326 -122.599151 355 5985ft 205kts
01-Jun-18 18:53 47.708124 -122.600358 355 5986ft 208kts
01-Jun-18 18:54 47.765537 -122.602493 355 5992ft 212kts
01-Jun-18 18:55 47.824370 -122.606460 355 5989ft 216kts
01-Jun-18 18:56 47.858903 -122.564336 125 5635ft 213kts
01-Jun-18 18:57 47.817478 -122.498372 135 4205ft 224kts
01-Jun-18 18:58 47.777944 -122.436176 134 3997ft 195kts
01-Jun-18 18:59 47.740539 -122.383575 135 3990ft 183kts
01-Jun-18 19:00 47.706777 -122.334598 135 3992ft 185kts
01-Jun-18 19:01 47.672250 -122.282762 136 3990ft 186kts
01-Jun-18 19:02 47.631753 -122.260099 204 3854ft 186kts
01-Jun-18 19:03 47.585821 -122.290490 206 2985ft 198kts
01-Jun-18 19:04 47.539579 -122.308694 175 2514ft 168kts
01-Jun-18 19:05 47.500795 -122.309431 183 1382ft 128kts
01-Jun-18 19:06 47.470682 -122.310751 183 635ft 108kts
01-Jun-18 19:07 47.451201 -122.311087 183 437ft 32kts
01-Jun-18 19:08 47.450855 -122.309970 28 437ft 0kts
01-Jun-18 19:09 47.450855 -122.309970 28 437ft 0kts
01-Jun-18 19:10 47.452364 -122.307251 88 437ft 1kts
01-Jun-18 19:11 47.452361 -122.307064 93 437ft 0kts

Navigation Log

Ident Type
Flight plan parsing failed, navigation log unavailable